createdAt,value
2022-11-07T00:00:08.375Z,39.98
2022-11-07T00:02:34.877Z,39.58
2022-11-07T00:05:02.321Z,39.92
2022-11-07T00:07:28.852Z,40.15
2022-11-07T00:09:55.325Z,40.04
2022-11-07T00:12:21.785Z,40.19
2022-11-07T00:14:48.277Z,40.14
2022-11-07T00:17:15.411Z,40.05
2022-11-07T00:19:41.913Z,40.17
2022-11-07T00:22:08.377Z,40.20
2022-11-07T00:24:34.872Z,40.24
2022-11-07T00:27:01.438Z,40.13
2022-11-07T00:29:27.951Z,40.27
2022-11-07T00:31:54.595Z,40.36
2022-11-07T00:34:21.056Z,40.01
2022-11-07T00:36:47.516Z,40.11
2022-11-07T00:39:13.997Z,40.31
2022-11-07T00:41:40.502Z,39.98
2022-11-07T00:44:07.002Z,39.89
2022-11-07T00:46:33.570Z,39.96
2022-11-07T00:49:00.051Z,39.99
2022-11-07T00:51:27.295Z,39.92
2022-11-07T00:53:53.830Z,39.94
2022-11-07T00:56:22.548Z,39.85
2022-11-07T00:58:49.043Z,39.83
2022-11-07T01:01:17.258Z,40.03
2022-11-07T01:04:02.461Z,39.79
2022-11-07T01:06:29.730Z,39.65
2022-11-07T01:08:56.636Z,40.21
2022-11-07T01:11:23.895Z,40.15
2022-11-07T01:13:50.414Z,40.31
2022-11-07T01:16:16.853Z,39.89
2022-11-07T01:18:43.337Z,40.18
2022-11-07T01:21:15.119Z,40.15
2022-11-07T01:23:42.895Z,40.39
2022-11-07T01:26:10.006Z,40.53
2022-11-07T01:28:36.617Z,40.42
2022-11-07T01:31:03.933Z,40.53
2022-11-07T01:33:30.515Z,40.46
2022-11-07T01:36:06.236Z,40.54
2022-11-07T01:38:32.947Z,40.54
2022-11-07T01:41:18.005Z,40.24
2022-11-07T01:44:00.521Z,40.35
2022-11-07T01:46:30.828Z,40.13
2022-11-07T01:49:28.651Z,40.13
2022-11-07T01:52:02.914Z,39.92
2022-11-07T01:54:39.031Z,39.95
2022-11-07T01:57:09.347Z,39.90
2022-11-07T01:59:35.824Z,39.80
2022-11-07T02:02:02.424Z,39.83
2022-11-07T02:04:29.617Z,40.13
2022-11-07T02:07:01.003Z,40.14
2022-11-07T02:09:27.690Z,40.04
2022-11-07T02:11:54.162Z,40.23
2022-11-07T02:14:20.697Z,40.28
2022-11-07T02:16:47.153Z,40.42
2022-11-07T02:19:30.227Z,40.24
2022-11-07T02:22:22.070Z,40.56
2022-11-07T02:24:50.872Z,40.28
2022-11-07T02:27:18.553Z,40.51
2022-11-07T02:29:46.512Z,40.21
2022-11-07T02:32:13.039Z,40.47
2022-11-07T02:34:39.510Z,40.43
2022-11-07T02:37:09.882Z,40.47
2022-11-07T02:39:36.342Z,40.41
2022-11-07T02:42:02.816Z,40.53
2022-11-07T02:44:29.517Z,40.37
2022-11-07T02:46:56.111Z,40.62
2022-11-07T02:49:22.588Z,40.42
2022-11-07T02:51:49.057Z,40.53
2022-11-07T02:54:15.517Z,40.69
2022-11-07T02:56:41.971Z,40.46
2022-11-07T02:59:08.449Z,40.72
2022-11-07T03:01:35.084Z,40.47
2022-11-07T03:04:01.966Z,40.54
2022-11-07T03:06:28.472Z,40.80
2022-11-07T03:08:54.945Z,40.97
2022-11-07T03:11:21.435Z,40.49
2022-11-07T03:13:48.120Z,41.01
2022-11-07T03:16:15.107Z,40.77
2022-11-07T03:18:41.575Z,40.83
2022-11-07T03:21:08.107Z,40.71
2022-11-07T03:23:35.065Z,40.72
2022-11-07T03:26:01.934Z,40.67
2022-11-07T03:28:28.399Z,40.89
2022-11-07T03:30:54.906Z,40.79
2022-11-07T03:33:21.404Z,40.84
2022-11-07T03:35:47.885Z,40.85
2022-11-07T03:38:14.355Z,40.17
2022-11-07T03:40:40.827Z,40.95
2022-11-07T03:43:07.312Z,41.00
2022-11-07T03:45:33.792Z,40.75
2022-11-07T03:48:00.276Z,40.75
2022-11-07T03:50:27.167Z,40.68
2022-11-07T03:52:53.689Z,40.63
2022-11-07T03:55:20.199Z,40.79
2022-11-07T03:57:46.806Z,40.92
2022-11-07T04:00:13.689Z,40.77
2022-11-07T04:02:40.516Z,40.93
2022-11-07T04:05:07.519Z,41.03
2022-11-07T04:07:34.183Z,40.88
2022-11-07T04:10:00.650Z,41.02
2022-11-07T04:12:45.659Z,41.05
2022-11-07T04:15:30.691Z,41.03
2022-11-07T04:17:57.175Z,41.14
2022-11-07T04:20:23.653Z,41.27
2022-11-07T04:22:50.116Z,41.30
2022-11-07T04:25:16.584Z,41.23
2022-11-07T04:27:43.061Z,41.23
2022-11-07T04:30:19.632Z,41.26
2022-11-07T04:32:46.889Z,41.39
2022-11-07T04:35:13.583Z,41.24
2022-11-07T04:37:40.448Z,41.19
2022-11-07T04:40:07.841Z,41.15
2022-11-07T04:42:34.297Z,41.13
2022-11-07T04:45:00.790Z,41.42
2022-11-07T04:47:27.290Z,41.35
2022-11-07T04:49:53.784Z,41.27
2022-11-07T04:52:20.242Z,41.29
2022-11-07T04:54:46.734Z,41.49
2022-11-07T04:57:13.273Z,41.29
2022-11-07T04:59:39.740Z,41.12
2022-11-07T05:02:06.370Z,41.26
2022-11-07T05:04:32.973Z,41.39
2022-11-07T05:06:59.437Z,41.36
2022-11-07T05:09:27.329Z,41.14
2022-11-07T05:11:54.104Z,41.19
2022-11-07T05:14:20.589Z,41.24
2022-11-07T05:16:47.042Z,41.22
2022-11-07T05:19:17.183Z,41.31
2022-11-07T05:21:45.439Z,41.29
2022-11-07T05:24:13.500Z,41.32
2022-11-07T05:26:40.094Z,41.08
2022-11-07T05:29:08.036Z,41.26
2022-11-07T05:31:34.518Z,41.38
2022-11-07T05:34:00.980Z,41.27
2022-11-07T05:36:27.449Z,41.23
2022-11-07T05:38:53.932Z,41.37
2022-11-07T05:41:21.100Z,41.41
2022-11-07T05:43:47.781Z,41.26
2022-11-07T05:46:14.618Z,41.44
2022-11-07T05:48:41.148Z,41.44
2022-11-07T05:51:07.745Z,41.35
2022-11-07T05:53:34.455Z,41.50
2022-11-07T05:56:01.046Z,41.26
2022-11-07T05:58:27.535Z,40.99
2022-11-07T06:00:54.068Z,41.23
2022-11-07T06:03:20.861Z,41.13
2022-11-07T06:05:47.674Z,41.46
2022-11-07T06:08:14.205Z,41.40
2022-11-07T06:10:41.398Z,41.30
2022-11-07T06:13:10.221Z,41.51
2022-11-07T06:15:36.893Z,41.53
2022-11-07T06:18:04.305Z,41.37
2022-11-07T06:20:30.786Z,41.21
2022-11-07T06:23:01.091Z,41.30
2022-11-07T06:25:28.239Z,41.44
2022-11-07T06:28:16.928Z,41.43
2022-11-07T06:30:43.461Z,41.54
2022-11-07T06:33:19.066Z,41.42
2022-11-07T06:35:45.971Z,41.66
2022-11-07T06:38:13.213Z,41.56
2022-11-07T06:40:40.655Z,41.58
2022-11-07T06:43:17.877Z,41.54
2022-11-07T06:45:44.908Z,41.58
2022-11-07T06:48:11.708Z,41.77
2022-11-07T06:50:38.374Z,41.66
2022-11-07T06:53:06.225Z,41.41
2022-11-07T06:55:34.208Z,41.29
2022-11-07T06:58:00.930Z,41.52
2022-11-07T07:00:33.836Z,41.32
2022-11-07T07:03:00.357Z,41.36
2022-11-07T07:05:26.966Z,41.38
2022-11-07T07:07:57.019Z,41.23
2022-11-07T07:10:25.311Z,41.37
2022-11-07T07:12:52.997Z,41.31
2022-11-07T07:15:19.557Z,41.55
2022-11-07T07:17:46.022Z,41.47
2022-11-07T07:20:12.491Z,41.71
2022-11-07T07:22:39.194Z,41.39
2022-11-07T07:25:06.217Z,41.31
2022-11-07T07:27:32.691Z,41.49
2022-11-07T07:29:59.167Z,41.49
2022-11-07T07:32:25.686Z,41.48
2022-11-07T07:34:52.319Z,41.74
2022-11-07T07:37:18.844Z,41.47
2022-11-07T07:39:45.337Z,41.39
2022-11-07T07:42:11.785Z,41.72
2022-11-07T07:44:39.318Z,41.68
2022-11-07T07:47:10.853Z,41.78
2022-11-07T07:49:37.725Z,41.70
2022-11-07T07:52:04.343Z,41.65
2022-11-07T07:54:30.818Z,41.75
2022-11-07T07:56:57.298Z,41.62
2022-11-07T07:59:23.784Z,41.92
2022-11-07T08:01:56.282Z,41.77
2022-11-07T08:04:23.477Z,41.63
2022-11-07T08:06:49.932Z,41.36
2022-11-07T08:09:16.381Z,41.73
2022-11-07T08:11:42.854Z,41.77
2022-11-07T08:14:11.453Z,41.76
2022-11-07T08:16:37.946Z,41.64
2022-11-07T08:19:04.410Z,41.70
2022-11-07T08:21:30.880Z,41.94
2022-11-07T08:23:57.349Z,41.90
2022-11-07T08:26:23.814Z,41.99
2022-11-07T08:28:50.301Z,42.10
2022-11-07T08:31:16.824Z,42.10
2022-11-07T08:33:43.317Z,42.03
2022-11-07T08:36:10.067Z,42.14
2022-11-07T08:38:36.808Z,42.26
2022-11-07T08:41:03.772Z,42.14
2022-11-07T08:43:30.251Z,42.11
2022-11-07T08:45:56.746Z,42.16
2022-11-07T08:48:23.338Z,42.19
2022-11-07T08:50:54.378Z,42.15
2022-11-07T08:53:21.432Z,42.23
2022-11-07T08:55:48.024Z,42.13
2022-11-07T08:58:15.117Z,42.10
2022-11-07T09:00:41.730Z,41.97
2022-11-07T09:03:24.360Z,42.03
2022-11-07T09:05:56.465Z,41.98
2022-11-07T09:08:22.969Z,41.90
2022-11-07T09:10:49.532Z,41.71
2022-11-07T09:13:17.531Z,41.83
2022-11-07T09:15:49.499Z,41.83
2022-11-07T09:18:17.318Z,41.77
2022-11-07T09:20:43.781Z,41.83
2022-11-07T09:23:10.431Z,42.11
2022-11-07T09:25:36.923Z,41.68
2022-11-07T09:28:03.850Z,41.96
2022-11-07T09:30:30.321Z,41.98
2022-11-07T09:32:57.044Z,41.71
2022-11-07T09:35:23.603Z,41.84
2022-11-07T09:37:50.508Z,41.71
2022-11-07T09:40:19.871Z,41.97
2022-11-07T09:43:05.683Z,41.80
2022-11-07T09:45:32.155Z,41.85
2022-11-07T09:48:00.284Z,41.78
2022-11-07T09:50:31.825Z,41.88
2022-11-07T09:53:04.186Z,42.03
2022-11-07T09:55:35.693Z,42.02
2022-11-07T09:58:03.875Z,41.78
2022-11-07T10:00:31.058Z,41.86
2022-11-07T10:02:58.182Z,41.95
2022-11-07T10:05:24.516Z,41.83
2022-11-07T10:08:22.206Z,41.96
2022-11-07T10:11:03.952Z,41.91
2022-11-07T10:13:46.156Z,42.05
2022-11-07T10:16:18.449Z,41.94
2022-11-07T10:18:59.523Z,41.91
2022-11-07T10:21:42.266Z,41.84
2022-11-07T10:24:37.242Z,41.93
2022-11-07T10:27:03.803Z,42.04
2022-11-07T10:29:47.785Z,41.91
2022-11-07T10:32:34.357Z,41.90
2022-11-07T10:35:26.114Z,42.14
2022-11-07T10:37:57.165Z,42.00
2022-11-07T10:40:23.650Z,42.17
2022-11-07T10:42:50.146Z,42.14
2022-11-07T10:45:17.396Z,42.13
2022-11-07T10:47:54.596Z,42.19
2022-11-07T10:50:22.257Z,42.03
2022-11-07T10:52:55.745Z,42.13
2022-11-07T10:55:22.403Z,42.18
2022-11-07T10:57:52.845Z,42.13
2022-11-07T11:00:37.061Z,42.08
2022-11-07T11:03:03.575Z,42.02
2022-11-07T11:05:40.997Z,42.09
2022-11-07T11:08:18.718Z,42.01
2022-11-07T11:10:45.561Z,42.11
2022-11-07T11:13:31.623Z,42.08
2022-11-07T11:16:05.692Z,41.92
2022-11-07T11:18:32.432Z,42.01
2022-11-07T11:21:03.182Z,41.94
2022-11-07T11:23:30.941Z,41.99
2022-11-07T11:26:09.656Z,42.09
2022-11-07T11:28:39.524Z,42.12
2022-11-07T11:31:08.105Z,41.93
2022-11-07T11:33:54.675Z,42.05
2022-11-07T11:36:26.250Z,42.07
2022-11-07T11:38:55.685Z,42.15
2022-11-07T11:41:35.944Z,42.08
2022-11-07T11:44:18.692Z,41.99
2022-11-07T11:47:14.277Z,42.03
2022-11-07T11:49:47.868Z,42.22
2022-11-07T11:52:19.657Z,42.45
2022-11-07T11:54:46.868Z,42.15
2022-11-07T11:57:21.280Z,42.06
2022-11-07T12:00:14.815Z,42.28
2022-11-07T12:02:54.958Z,42.34
2022-11-07T12:05:47.771Z,42.18
2022-11-07T12:08:17.628Z,42.05
2022-11-07T12:10:44.916Z,42.11
2022-11-07T12:13:19.120Z,42.21
2022-11-07T12:15:52.525Z,42.12
2022-11-07T12:18:24.440Z,42.45
2022-11-07T12:21:12.235Z,42.18
2022-11-07T12:24:02.911Z,41.81
2022-11-07T12:26:33.802Z,41.43
2022-11-07T12:29:15.445Z,41.55
2022-11-07T12:32:00.229Z,41.41
2022-11-07T12:34:41.065Z,41.45
2022-11-07T12:37:42.864Z,41.31
2022-11-07T12:40:21.645Z,41.35
2022-11-07T12:43:09.830Z,41.41
2022-11-07T12:45:59.731Z,41.41
2022-11-07T12:49:04.038Z,41.57
2022-11-07T12:51:58.385Z,41.65
2022-11-07T12:54:33.782Z,41.65
2022-11-07T12:57:02.407Z,41.73
2022-11-07T12:59:29.933Z,41.67
2022-11-07T13:02:22.627Z,41.65
2022-11-07T13:04:55.944Z,41.57
2022-11-07T13:07:27.374Z,41.63
2022-11-07T13:10:16.863Z,41.84
2022-11-07T13:13:23.606Z,41.62
2022-11-07T13:16:14.103Z,41.80
2022-11-07T13:18:36.700Z,41.81
2022-11-07T13:21:05.653Z,41.68
2022-11-07T13:23:32.219Z,41.56
2022-11-07T13:26:10.685Z,41.57
2022-11-07T13:29:00.071Z,41.63
2022-11-07T13:31:39.357Z,41.49
2022-11-07T13:34:50.792Z,41.50
2022-11-07T13:37:20.142Z,41.47
2022-11-07T13:39:47.147Z,41.32
2022-11-07T13:42:17.348Z,41.59
2022-11-07T13:44:43.819Z,41.88
2022-11-07T13:47:15.292Z,41.87
2022-11-07T13:49:45.008Z,41.82
2022-11-07T13:52:22.539Z,42.13
2022-11-07T13:55:04.150Z,42.09
2022-11-07T13:57:34.479Z,42.27
2022-11-07T14:00:10.918Z,42.66
2022-11-07T14:02:37.532Z,42.46
2022-11-07T14:05:21.558Z,42.04
2022-11-07T14:07:49.681Z,41.99
2022-11-07T14:10:24.293Z,41.88
2022-11-07T14:12:59.079Z,41.87
2022-11-07T14:15:25.563Z,41.90
2022-11-07T14:17:52.042Z,41.62
2022-11-07T14:20:19.680Z,41.58
2022-11-07T14:22:50.655Z,41.69
2022-11-07T14:25:26.545Z,41.67
2022-11-07T14:27:53.073Z,41.77
2022-11-07T14:30:20.217Z,41.66
2022-11-07T14:32:51.634Z,41.61
2022-11-07T14:35:20.071Z,41.88
2022-11-07T14:37:46.793Z,42.01
2022-11-07T14:40:13.269Z,41.74
2022-11-07T14:42:39.808Z,41.90
2022-11-07T14:45:06.940Z,41.93
2022-11-07T14:47:33.559Z,42.15
2022-11-07T14:50:01.601Z,41.74
2022-11-07T14:52:38.833Z,42.09
2022-11-07T14:55:20.827Z,42.26
2022-11-07T14:57:47.339Z,42.17
2022-11-07T15:00:15.550Z,42.25
2022-11-07T15:02:42.185Z,42.65
2022-11-07T15:05:24.965Z,42.68
2022-11-07T15:07:51.592Z,42.55
2022-11-07T15:10:25.577Z,42.69
2022-11-07T15:13:02.962Z,42.54
2022-11-07T15:15:33.656Z,42.55
2022-11-07T15:18:04.652Z,42.66
2022-11-07T15:20:31.046Z,42.42
2022-11-07T15:22:59.516Z,42.18
2022-11-07T15:25:38.062Z,42.08
2022-11-07T15:28:30.081Z,41.90
2022-11-07T15:30:59.881Z,41.65
2022-11-07T15:33:29.374Z,41.78
2022-11-07T15:35:57.063Z,41.77
2022-11-07T15:38:25.456Z,41.68
2022-11-07T15:40:51.978Z,41.69
2022-11-07T15:43:18.669Z,41.65
2022-11-07T15:45:45.486Z,41.60
2022-11-07T15:48:17.700Z,41.81
2022-11-07T15:50:45.285Z,41.75
2022-11-07T15:53:22.981Z,41.85
2022-11-07T15:55:53.926Z,41.72
2022-11-07T15:58:24.606Z,41.88
2022-11-07T16:00:51.816Z,41.68
2022-11-07T16:03:19.985Z,41.63
2022-11-07T16:05:47.421Z,41.55
2022-11-07T16:08:15.675Z,41.71
2022-11-07T16:10:44.988Z,41.83
2022-11-07T16:13:11.498Z,41.61
2022-11-07T16:15:37.971Z,41.46
2022-11-07T16:18:04.664Z,42.00
2022-11-07T16:20:33.490Z,41.70
2022-11-07T16:23:00.603Z,42.11
2022-11-07T16:25:27.156Z,42.23
2022-11-07T16:27:56.176Z,42.24
2022-11-07T16:30:22.992Z,42.32
2022-11-07T16:32:49.464Z,42.62
2022-11-07T16:35:16.053Z,42.44
2022-11-07T16:37:42.524Z,42.38
2022-11-07T16:40:15.145Z,42.46
2022-11-07T16:42:41.843Z,42.53
2022-11-07T16:45:08.707Z,42.54
2022-11-07T16:47:37.091Z,42.24
2022-11-07T16:50:04.063Z,42.06
2022-11-07T16:52:30.587Z,42.62
2022-11-07T16:54:57.042Z,44.19
2022-11-07T16:57:23.759Z,44.30
2022-11-07T16:59:52.295Z,43.66
2022-11-07T17:02:21.700Z,42.95
2022-11-07T17:04:49.359Z,42.77
2022-11-07T17:07:15.976Z,42.80
2022-11-07T17:09:42.615Z,42.90
2022-11-07T17:12:12.547Z,43.82
2022-11-07T17:14:39.101Z,44.74
2022-11-07T17:17:05.618Z,44.23
2022-11-07T17:19:32.399Z,44.74
2022-11-07T17:22:00.024Z,45.17
2022-11-07T17:24:26.520Z,45.14
2022-11-07T17:26:53.097Z,45.39
2022-11-07T17:29:19.562Z,44.94
2022-11-07T17:31:49.032Z,45.42
2022-11-07T17:34:15.512Z,45.93
2022-11-07T17:36:46.194Z,45.05
2022-11-07T17:39:20.027Z,45.46
2022-11-07T17:41:47.757Z,45.10
2022-11-07T17:44:14.284Z,44.40
2022-11-07T17:46:44.879Z,44.44
2022-11-07T17:49:13.269Z,43.94
2022-11-07T17:51:41.684Z,43.70
2022-11-07T17:54:09.855Z,43.21
2022-11-07T17:56:36.392Z,43.36
2022-11-07T17:59:05.101Z,43.09
2022-11-07T18:01:33.336Z,42.88
2022-11-07T18:03:59.996Z,42.88
2022-11-07T18:06:26.619Z,43.17
2022-11-07T18:08:54.920Z,43.12
2022-11-07T18:11:23.002Z,42.92
2022-11-07T18:13:49.968Z,42.65
2022-11-07T18:16:19.629Z,42.54
2022-11-07T18:18:46.160Z,42.24
2022-11-07T18:21:12.697Z,41.83
2022-11-07T18:23:40.374Z,41.21
2022-11-07T18:26:11.617Z,42.14
2022-11-07T18:28:39.002Z,41.63
2022-11-07T18:31:07.086Z,41.43
2022-11-07T18:33:33.876Z,42.14
2022-11-07T18:36:01.351Z,42.32
2022-11-07T18:38:27.903Z,42.40
2022-11-07T18:41:05.751Z,42.26
2022-11-07T18:43:32.448Z,42.59
2022-11-07T18:45:59.210Z,42.70
2022-11-07T18:48:25.833Z,42.65
2022-11-07T18:50:52.355Z,42.40
2022-11-07T18:53:18.847Z,42.32
2022-11-07T18:55:45.307Z,42.47
2022-11-07T18:58:11.806Z,42.34
2022-11-07T19:00:38.388Z,42.23
2022-11-07T19:03:04.898Z,42.12
2022-11-07T19:05:36.096Z,42.19
2022-11-07T19:08:06.591Z,42.04
2022-11-07T19:10:33.363Z,42.18
2022-11-07T19:13:04.054Z,42.52
2022-11-07T19:15:39.551Z,42.27
2022-11-07T19:18:06.029Z,42.45
2022-11-07T19:20:32.546Z,42.08
2022-11-07T19:22:59.113Z,42.60
2022-11-07T19:25:25.575Z,42.27
2022-11-07T19:27:52.100Z,42.39
2022-11-07T19:30:18.626Z,42.49
2022-11-07T19:32:45.719Z,42.71
2022-11-07T19:35:12.252Z,42.72
2022-11-07T19:37:38.774Z,42.36
2022-11-07T19:40:06.378Z,42.58
2022-11-07T19:42:32.856Z,42.78
2022-11-07T19:44:59.424Z,42.61
2022-11-07T19:47:26.079Z,42.58
2022-11-07T19:49:52.586Z,42.86
2022-11-07T19:52:19.075Z,42.58
2022-11-07T19:54:45.844Z,42.62
2022-11-07T19:57:12.368Z,42.55
2022-11-07T19:59:38.825Z,42.88
2022-11-07T20:02:36.332Z,42.73
2022-11-07T20:04:53.524Z,42.69
2022-11-07T20:07:20.006Z,42.65
2022-11-07T20:09:46.461Z,42.91
2022-11-07T20:12:12.943Z,42.67
2022-11-07T20:14:39.402Z,42.54
2022-11-07T20:17:05.915Z,42.29
2022-11-07T20:19:33.884Z,42.66
2022-11-07T20:22:01.059Z,43.34
2022-11-07T20:24:27.856Z,43.50
2022-11-07T20:26:54.399Z,43.75
2022-11-07T20:29:22.852Z,43.59
2022-11-07T20:31:49.649Z,43.96
2022-11-07T20:34:17.835Z,43.72
2022-11-07T20:36:44.466Z,43.80
2022-11-07T20:39:11.808Z,43.75
2022-11-07T20:41:38.695Z,44.20
2022-11-07T20:44:06.272Z,44.25
2022-11-07T20:46:34.606Z,44.41
2022-11-07T20:49:01.648Z,43.86
2022-11-07T20:51:28.126Z,44.00
2022-11-07T20:53:54.731Z,44.25
2022-11-07T20:56:22.159Z,44.72
2022-11-07T20:58:48.726Z,44.98
2022-11-07T21:01:23.398Z,44.80
2022-11-07T21:03:50.088Z,44.78
2022-11-07T21:06:16.860Z,44.48
2022-11-07T21:08:44.730Z,44.96
2022-11-07T21:11:11.486Z,44.80
2022-11-07T21:13:38.423Z,44.86
2022-11-07T21:16:05.446Z,44.59
2022-11-07T21:18:32.149Z,44.95
2022-11-07T21:21:12.455Z,44.44
2022-11-07T21:23:38.967Z,44.34
2022-11-07T21:26:07.099Z,43.66
2022-11-07T21:28:33.650Z,43.82
2022-11-07T21:31:04.378Z,43.95
2022-11-07T21:33:31.006Z,43.71
2022-11-07T21:35:57.481Z,43.69
2022-11-07T21:38:24.101Z,43.55
2022-11-07T21:40:50.563Z,43.71
2022-11-07T21:43:17.266Z,43.53
2022-11-07T21:45:43.921Z,43.41
2022-11-07T21:48:10.455Z,43.73
2022-11-07T21:50:44.989Z,43.74
2022-11-07T21:53:12.059Z,43.42
2022-11-07T21:55:38.598Z,43.84
2022-11-07T21:58:05.228Z,43.64
2022-11-07T22:00:35.834Z,43.83
2022-11-07T22:03:02.895Z,43.96
2022-11-07T22:05:29.362Z,43.89
2022-11-07T22:07:55.811Z,43.65
2022-11-07T22:10:22.279Z,43.72
2022-11-07T22:12:50.573Z,43.84
2022-11-07T22:15:17.110Z,43.92
2022-11-07T22:17:43.576Z,44.00
2022-11-07T22:20:10.689Z,43.87
2022-11-07T22:22:37.772Z,43.73
2022-11-07T22:25:04.797Z,44.17
2022-11-07T22:27:31.268Z,44.10
2022-11-07T22:29:57.878Z,43.59
2022-11-07T22:32:24.393Z,43.76
2022-11-07T22:34:50.853Z,44.19
2022-11-07T22:37:17.309Z,44.14
2022-11-07T22:39:43.774Z,43.96
2022-11-07T22:42:10.230Z,44.53
2022-11-07T22:44:37.027Z,44.66
2022-11-07T22:47:03.699Z,44.63
2022-11-07T22:49:30.204Z,44.06
2022-11-07T22:51:56.712Z,43.70
2022-11-07T22:54:23.180Z,43.77
2022-11-07T22:56:49.641Z,43.74
2022-11-07T22:59:16.094Z,43.83
2022-11-07T23:01:42.729Z,44.05
2022-11-07T23:04:13.047Z,43.79
2022-11-07T23:06:39.514Z,43.90
2022-11-07T23:09:07.001Z,43.98
2022-11-07T23:11:50.314Z,44.04
2022-11-07T23:14:18.451Z,44.12
2022-11-07T23:16:49.244Z,44.33
2022-11-07T23:19:16.992Z,44.57
2022-11-07T23:21:43.564Z,44.37
2022-11-07T23:24:10.097Z,44.37
2022-11-07T23:26:36.614Z,44.71
2022-11-07T23:29:10.413Z,44.75
2022-11-07T23:31:41.315Z,44.79
2022-11-07T23:34:07.955Z,45.06
2022-11-07T23:36:34.463Z,45.16
2022-11-07T23:39:07.420Z,44.84
2022-11-07T23:41:34.116Z,45.19
2022-11-07T23:44:00.606Z,45.11
2022-11-07T23:46:45.365Z,45.02
2022-11-07T23:49:30.434Z,45.22
2022-11-07T23:51:56.970Z,44.91
2022-11-07T23:54:41.939Z,45.13
2022-11-07T23:57:08.406Z,45.06
2022-11-07T23:59:53.999Z,44.98
